createdAt,value
2023-03-12T00:01:46.498Z,99517.92
2023-03-12T00:06:47.970Z,99524.70
2023-03-12T00:11:49.510Z,99523.67
2023-03-12T00:16:50.979Z,99527.05
2023-03-12T00:21:52.470Z,99528.08
2023-03-12T00:26:53.947Z,99526.72
2023-03-12T00:31:55.450Z,99524.36
2023-03-12T00:36:56.912Z,99517.41
2023-03-12T00:41:58.505Z,99509.95
2023-03-12T00:47:00.229Z,99510.45
2023-03-12T00:52:01.963Z,99512.65
2023-03-12T00:57:03.950Z,99510.45
2023-03-12T01:02:08.236Z,99506.05
2023-03-12T01:07:09.750Z,99503.52
2023-03-12T01:12:11.782Z,99503.86
2023-03-12T01:17:13.305Z,99505.05
2023-03-12T01:22:14.827Z,99498.11
2023-03-12T01:27:16.544Z,99499.96
2023-03-12T01:32:18.191Z,99498.62
2023-03-12T01:37:19.696Z,99498.14
2023-03-12T01:42:21.702Z,99495.60
2023-03-12T01:47:23.835Z,99497.80
2023-03-12T01:52:31.914Z,99492.04
2023-03-12T01:57:41.996Z,99492.34
2023-03-12T02:02:45.078Z,99487.58
2023-03-12T02:07:47.276Z,99483.65
2023-03-12T02:12:49.165Z,99482.78
2023-03-12T02:17:50.647Z,99480.89
2023-03-12T02:23:17.164Z,99482.21
2023-03-12T02:28:23.620Z,99482.71
2023-03-12T02:33:25.964Z,99488.14
2023-03-12T02:38:44.313Z,99491.02
2023-03-12T02:43:50.091Z,99493.19
2023-03-12T02:48:53.754Z,99486.91
2023-03-12T02:53:55.260Z,99493.35
2023-03-12T02:58:56.830Z,99493.15
2023-03-12T03:03:58.736Z,99490.45
2023-03-12T03:09:00.222Z,99493.33
2023-03-12T03:14:04.385Z,99493.34
2023-03-12T03:19:06.137Z,99499.95
2023-03-12T03:24:08.064Z,99505.88
2023-03-12T03:29:09.677Z,99512.64
2023-03-12T03:34:12.953Z,99517.88
2023-03-12T03:39:14.464Z,99528.90
2023-03-12T03:44:15.928Z,99527.17
2023-03-12T03:49:17.784Z,99526.80
2023-03-12T03:54:19.965Z,99528.16
2023-03-12T03:59:21.430Z,99531.86
2023-03-12T04:04:22.986Z,99529.63
2023-03-12T04:09:24.457Z,99537.73
2023-03-12T04:14:25.935Z,99540.20
2023-03-12T04:19:27.443Z,99546.44
2023-03-12T04:24:29.276Z,99543.86
2023-03-12T04:29:30.798Z,99551.28
2023-03-12T04:34:32.438Z,99557.52
2023-03-12T04:39:34.234Z,99564.80
2023-03-12T04:44:36.356Z,99565.48
2023-03-12T04:49:39.740Z,99572.25
2023-03-12T04:54:41.202Z,99568.00
2023-03-12T04:59:42.869Z,99563.92
2023-03-12T05:04:44.411Z,99569.02
2023-03-12T05:09:46.435Z,99569.01
2023-03-12T05:14:48.018Z,99577.98
2023-03-12T05:19:49.500Z,99570.00
2023-03-12T05:24:51.239Z,99575.25
2023-03-12T05:29:53.314Z,99570.49
2023-03-12T05:34:55.193Z,99572.53
2023-03-12T05:39:56.684Z,99572.52
2023-03-12T05:44:59.399Z,99580.30
2023-03-12T05:50:00.861Z,99584.67
2023-03-12T05:55:02.368Z,99588.88
2023-03-12T06:00:05.427Z,99594.45
2023-03-12T06:05:09.249Z,99596.45
2023-03-12T06:10:11.575Z,99606.08
2023-03-12T06:15:13.131Z,99604.32
2023-03-12T06:20:15.072Z,99602.85
2023-03-12T06:25:16.612Z,99607.52
2023-03-12T06:30:18.279Z,99615.74
2023-03-12T06:35:20.166Z,99618.20
2023-03-12T06:40:21.863Z,99622.86
2023-03-12T06:45:23.476Z,99631.41
2023-03-12T06:50:25.316Z,99632.13
2023-03-12T06:55:26.774Z,99634.33
2023-03-12T07:00:28.563Z,99641.55
2023-03-12T07:05:31.389Z,99647.58
2023-03-12T07:10:32.880Z,99648.70
2023-03-12T07:15:35.272Z,99650.52
2023-03-12T07:20:39.772Z,99658.73
2023-03-12T07:25:43.402Z,99670.24
2023-03-12T07:30:50.288Z,99675.14
2023-03-12T07:35:52.246Z,99678.19
2023-03-12T07:40:56.146Z,99681.56
2023-03-12T07:45:57.796Z,99683.52
2023-03-12T07:50:59.644Z,99683.11
2023-03-12T07:56:01.235Z,99685.94
2023-03-12T08:01:03.396Z,99688.67
2023-03-12T08:06:06.236Z,99698.13
2023-03-12T08:11:09.354Z,99700.79
2023-03-12T08:16:11.209Z,99706.06
2023-03-12T08:21:16.343Z,99708.94
2023-03-12T08:26:18.084Z,99712.23
2023-03-12T08:31:19.868Z,99719.92
2023-03-12T08:36:22.596Z,99732.83
2023-03-12T08:41:24.961Z,99734.59
2023-03-12T08:46:26.573Z,99741.98
2023-03-12T08:51:36.822Z,99747.29
2023-03-12T08:56:42.480Z,99749.21
2023-03-12T09:01:44.586Z,99758.50
2023-03-12T09:06:46.273Z,99766.02
2023-03-12T09:11:48.037Z,99769.84
2023-03-12T09:16:50.214Z,99764.23
2023-03-12T09:21:52.197Z,99766.27
2023-03-12T09:26:53.741Z,99764.09
2023-03-12T09:31:55.533Z,99769.15
2023-03-12T09:36:57.327Z,99778.03
2023-03-12T09:41:59.119Z,99783.77
2023-03-12T09:47:05.863Z,99779.35
2023-03-12T09:52:36.050Z,99789.73
2023-03-12T09:57:37.902Z,99797.31
2023-03-12T10:02:51.560Z,99801.53
2023-03-12T10:08:07.587Z,99809.46
2023-03-12T10:13:43.529Z,99803.31
2023-03-12T10:18:53.762Z,99797.30
2023-03-12T10:23:55.431Z,99815.05
2023-03-12T10:29:27.398Z,99826.95
2023-03-12T10:34:43.175Z,99824.04
2023-03-12T10:39:45.040Z,99813.64
2023-03-12T10:44:56.330Z,99823.26
2023-03-12T10:50:19.802Z,99833.56
2023-03-12T10:55:29.617Z,99834.22
2023-03-12T11:00:32.491Z,99838.55
2023-03-12T11:05:48.954Z,99835.10
2023-03-12T11:10:50.654Z,99839.72
2023-03-12T11:15:53.122Z,99830.64
2023-03-12T11:21:13.524Z,99838.65
2023-03-12T11:26:21.173Z,99838.98
2023-03-12T11:31:30.575Z,99842.55
2023-03-12T11:36:49.892Z,99840.19
2023-03-12T11:42:00.222Z,99841.00
2023-03-12T11:47:28.567Z,99844.75
2023-03-12T11:53:07.239Z,99838.02
2023-03-12T11:58:38.685Z,99841.64
2023-03-12T12:03:58.970Z,99845.14
2023-03-12T12:09:19.171Z,99835.88
2023-03-12T12:14:58.736Z,99846.02
2023-03-12T12:20:10.251Z,99857.05
2023-03-12T12:25:47.058Z,99859.38
2023-03-12T12:31:40.495Z,99856.02
2023-03-12T12:36:47.924Z,99871.52
2023-03-12T12:41:57.490Z,99880.37
2023-03-12T12:47:03.819Z,99887.84
2023-03-12T12:52:08.985Z,99883.45
2023-03-12T12:57:45.683Z,99891.76
2023-03-12T13:02:48.185Z,99904.80
2023-03-12T13:07:51.777Z,99912.50
2023-03-12T13:12:56.180Z,99922.22
2023-03-12T13:18:03.443Z,99933.86
2023-03-12T13:23:24.494Z,99943.61
2023-03-12T13:28:26.362Z,99944.99
2023-03-12T13:33:48.818Z,99946.77
2023-03-12T13:38:59.084Z,99951.88
2023-03-12T13:44:20.968Z,99949.80
2023-03-12T13:49:23.192Z,99956.17
2023-03-12T13:54:29.751Z,99953.98
2023-03-12T13:59:32.624Z,99963.14
2023-03-12T14:04:39.104Z,99967.81
2023-03-12T14:09:59.382Z,99970.46
2023-03-12T14:15:12.252Z,99973.27
2023-03-12T14:20:19.342Z,99985.33
2023-03-12T14:25:47.131Z,99980.14
2023-03-12T14:30:57.379Z,99992.05
2023-03-12T14:36:15.710Z,99994.02
2023-03-12T14:41:34.038Z,99991.02
2023-03-12T14:46:35.628Z,99992.13
2023-03-12T14:51:37.315Z,99987.16
2023-03-12T14:56:43.350Z,99978.98
2023-03-12T15:01:45.839Z,99989.66
2023-03-12T15:06:50.624Z,99992.98
2023-03-12T15:11:57.967Z,99994.34
2023-03-12T15:17:00.604Z,99993.79
2023-03-12T15:22:04.464Z,99997.35
2023-03-12T15:27:25.122Z,100003.92
2023-03-12T15:32:29.753Z,100008.45
2023-03-12T15:37:41.186Z,100018.67
2023-03-12T15:42:46.053Z,100020.33
2023-03-12T15:47:48.593Z,100027.05
2023-03-12T15:52:51.347Z,100028.04
2023-03-12T15:57:55.098Z,100029.89
2023-03-12T16:03:06.026Z,100034.73
2023-03-12T16:08:29.655Z,100038.84
2023-03-12T16:13:32.307Z,100044.05
2023-03-12T16:18:33.961Z,100055.27
2023-03-12T16:23:35.949Z,100057.82
2023-03-12T16:28:38.128Z,100052.52
2023-03-12T16:33:40.297Z,100057.24
2023-03-12T16:38:43.675Z,100059.62
2023-03-12T16:50:59.064Z,100087.30
2023-03-12T16:56:02.487Z,100092.40
2023-03-12T17:01:05.441Z,100094.43
2023-03-12T17:06:08.437Z,100098.68
2023-03-12T17:11:38.038Z,100109.52
2023-03-12T17:16:39.731Z,100119.33
2023-03-12T17:21:42.027Z,100117.19
2023-03-12T17:26:45.624Z,100120.47
2023-03-12T17:31:50.434Z,100125.46
2023-03-12T17:36:52.118Z,100128.38
2023-03-12T17:41:53.926Z,100130.10
2023-03-12T17:46:59.644Z,100134.85
2023-03-12T17:52:03.409Z,100134.68
2023-03-12T17:57:08.414Z,100133.50
2023-03-12T18:02:14.650Z,100138.60
2023-03-12T18:07:17.219Z,100138.25
2023-03-12T18:12:18.968Z,100141.14
2023-03-12T18:17:20.927Z,100138.59
2023-03-12T18:22:24.574Z,100146.40
2023-03-12T18:27:26.614Z,100154.71
2023-03-12T18:32:28.293Z,100158.79
2023-03-12T18:37:30.226Z,100160.16
2023-03-12T18:42:32.392Z,100171.20
2023-03-12T18:47:35.052Z,100170.17
2023-03-12T18:52:37.013Z,100172.39
2023-03-12T18:57:38.503Z,100176.98
2023-03-12T19:02:40.810Z,100174.60
2023-03-12T19:07:42.560Z,100169.16
2023-03-12T19:12:53.766Z,100169.14
2023-03-12T19:17:55.722Z,100162.67
2023-03-12T19:22:57.472Z,100157.77
2023-03-12T19:27:59.036Z,100161.48
2023-03-12T19:33:00.936Z,100158.07
2023-03-12T19:38:02.459Z,100154.84
2023-03-12T19:43:04.141Z,100155.33
2023-03-12T19:48:06.123Z,100169.74
2023-03-12T19:53:07.689Z,100176.37
2023-03-12T19:58:09.288Z,100177.05
2023-03-12T20:03:10.876Z,100175.51
2023-03-12T20:08:12.849Z,100180.25
2023-03-12T20:13:17.751Z,100177.55
2023-03-12T20:18:19.841Z,100184.70
2023-03-12T20:23:21.423Z,100189.27
2023-03-12T20:28:23.016Z,100194.34
2023-03-12T20:33:24.588Z,100194.08
2023-03-12T20:38:26.096Z,100193.77
2023-03-12T20:43:27.725Z,100188.17
2023-03-12T20:48:29.329Z,100178.02
2023-03-12T20:53:30.943Z,100171.36
2023-03-12T20:58:32.980Z,100164.02
2023-03-12T21:03:34.838Z,100162.33
2023-03-12T21:08:36.923Z,100158.98
2023-03-12T21:13:38.520Z,100164.77
2023-03-12T21:18:40.379Z,100158.55
2023-03-12T21:23:42.211Z,100160.46
2023-03-12T21:28:44.211Z,100158.63
2023-03-12T21:33:45.946Z,100153.07
2023-03-12T21:38:47.620Z,100147.48
2023-03-12T21:43:49.213Z,100141.06
2023-03-12T21:48:51.094Z,100143.95
2023-03-12T21:53:54.487Z,100143.13
2023-03-12T21:58:57.607Z,100146.05
2023-03-12T22:04:01.208Z,100146.96
2023-03-12T22:09:02.930Z,100145.84
2023-03-12T22:14:04.688Z,100147.94
2023-03-12T22:19:07.811Z,100141.90
2023-03-12T22:24:10.678Z,100141.73
2023-03-12T22:29:12.295Z,100138.67
2023-03-12T22:34:13.914Z,100134.45
2023-03-12T22:39:17.520Z,100123.94
2023-03-12T22:44:19.172Z,100119.35
2023-03-12T22:49:21.112Z,100118.17
2023-03-12T22:54:22.620Z,100109.53
2023-03-12T22:59:24.118Z,100104.49
2023-03-12T23:04:26.103Z,100095.71
2023-03-12T23:09:27.835Z,100090.15
2023-03-12T23:14:29.391Z,100087.63
2023-03-12T23:19:34.247Z,100091.55
2023-03-12T23:24:36.123Z,100088.17
2023-03-12T23:29:37.679Z,100083.92
2023-03-12T23:34:39.182Z,100084.26
2023-03-12T23:39:53.615Z,100073.90
2023-03-12T23:44:56.180Z,100075.60
2023-03-12T23:49:57.698Z,100079.00
2023-03-12T23:54:59.176Z,100070.52
